createdAt,value
2019-05-01T00:01:22.693Z,25.93
2019-05-01T00:03:52.872Z,27.93
2019-05-01T00:06:23.055Z,29.13
2019-05-01T00:08:51.606Z,27.47
2019-05-01T00:11:20.070Z,26.70
2019-05-01T00:13:48.610Z,26.57
2019-05-01T00:16:17.678Z,30.80
2019-05-01T00:18:46.150Z,28.17
2019-05-01T00:21:15.118Z,26.50
2019-05-01T00:23:43.594Z,25.47
2019-05-01T00:26:12.129Z,28.27
2019-05-01T00:28:40.693Z,26.63
2019-05-01T00:31:09.281Z,27.33
2019-05-01T00:33:37.750Z,25.10
2019-05-01T00:36:06.290Z,26.70
2019-05-01T00:38:34.783Z,26.77
2019-05-01T00:41:03.262Z,25.97
2019-05-01T00:43:31.794Z,26.80
2019-05-01T00:46:00.295Z,27.47
2019-05-01T00:48:28.773Z,25.40
2019-05-01T00:50:57.231Z,25.73
2019-05-01T00:53:25.731Z,26.23
2019-05-01T00:55:58.662Z,26.30
2019-05-01T00:58:31.236Z,27.17
2019-05-01T01:01:07.338Z,27.57
2019-05-01T01:03:35.937Z,26.37
2019-05-01T01:06:05.547Z,26.20
2019-05-01T01:08:34.060Z,26.97
2019-05-01T01:11:02.593Z,25.43
2019-05-01T01:13:31.084Z,26.17
2019-05-01T01:15:59.584Z,28.30
2019-05-01T01:18:30.614Z,25.53
2019-05-01T01:20:59.098Z,28.80
2019-05-01T01:23:27.854Z,27.37
2019-05-01T01:25:56.860Z,27.90
2019-05-01T01:28:25.912Z,28.77
2019-05-01T01:30:56.424Z,26.60
2019-05-01T01:33:24.648Z,29.87
2019-05-01T01:35:53.454Z,26.40
2019-05-01T01:38:22.214Z,25.90
2019-05-01T01:40:50.851Z,25.87
2019-05-01T01:43:36.445Z,27.53
2019-05-01T01:46:09.699Z,27.00
2019-05-01T01:48:38.741Z,28.07
2019-05-01T01:51:07.296Z,23.93
2019-05-01T01:53:36.721Z,26.67
2019-05-01T01:56:05.552Z,24.80
2019-05-01T01:58:34.997Z,24.20
2019-05-01T02:01:09.537Z,24.60
2019-05-01T02:03:38.962Z,24.00
2019-05-01T02:06:07.876Z,26.17
2019-05-01T02:08:36.417Z,25.07
2019-05-01T02:11:05.142Z,24.63
2019-05-01T02:13:34.182Z,26.37
2019-05-01T02:16:02.782Z,23.33
2019-05-01T02:18:31.620Z,24.47
2019-05-01T02:21:00.177Z,23.50
2019-05-01T02:23:28.642Z,24.77
2019-05-01T02:25:57.111Z,21.13
2019-05-01T02:28:39.876Z,19.57
2019-05-01T02:31:27.449Z,21.83
2019-05-01T02:33:47.088Z,25.27
2019-05-01T02:36:19.401Z,24.72
2019-05-01T02:38:49.980Z,22.43
2019-05-01T02:41:20.792Z,24.20
2019-05-01T02:43:52.156Z,19.63
2019-05-01T02:46:23.053Z,17.90
2019-05-01T02:48:54.610Z,20.00
2019-05-01T02:51:24.135Z,19.57
2019-05-01T02:53:52.879Z,20.67
2019-05-01T02:56:24.756Z,21.30
2019-05-01T02:58:55.717Z,18.13
2019-05-01T03:01:25.881Z,16.87
2019-05-01T03:03:56.815Z,19.47
2019-05-01T03:06:27.629Z,19.53
2019-05-01T03:08:57.830Z,20.63
2019-05-01T03:11:27.456Z,20.97
2019-05-01T03:13:58.275Z,21.10
2019-05-01T03:16:27.335Z,21.40
2019-05-01T03:18:57.835Z,22.73
2019-05-01T03:21:30.787Z,22.02
2019-05-01T03:24:16.020Z,20.53
2019-05-01T03:26:45.022Z,21.47
2019-05-01T03:29:13.674Z,27.23
2019-05-01T03:31:43.348Z,24.13
2019-05-01T03:34:12.324Z,24.33
2019-05-01T03:36:41.086Z,25.63
2019-05-01T03:39:09.766Z,24.30
2019-05-01T03:41:39.019Z,23.10
2019-05-01T03:44:08.334Z,25.03
2019-05-01T03:46:37.454Z,26.77
2019-05-01T03:49:06.650Z,23.37
2019-05-01T03:51:36.738Z,21.27
2019-05-01T03:54:05.691Z,21.63
2019-05-01T03:56:34.235Z,26.67
2019-05-01T03:59:04.422Z,20.80
2019-05-01T04:01:35.391Z,29.20
2019-05-01T04:04:06.115Z,23.27
2019-05-01T04:06:37.863Z,22.00
2019-05-01T04:09:08.089Z,21.30
2019-05-01T04:11:37.779Z,23.80
2019-05-01T04:14:07.196Z,17.67
2019-05-01T04:16:36.847Z,17.90
2019-05-01T04:19:06.898Z,20.73
2019-05-01T04:21:37.099Z,19.53
2019-05-01T04:24:05.737Z,16.87
2019-05-01T04:26:34.273Z,17.30
2019-05-01T04:29:14.222Z,19.33
2019-05-01T04:31:53.595Z,20.00
2019-05-01T04:34:32.341Z,16.83
2019-05-01T04:37:16.644Z,25.57
2019-05-01T04:39:54.665Z,18.93
2019-05-01T04:42:26.235Z,23.27
2019-05-01T04:44:54.804Z,26.10
2019-05-01T04:47:23.816Z,23.43
2019-05-01T04:49:59.539Z,26.67
2019-05-01T04:52:28.510Z,25.67
2019-05-01T04:54:57.233Z,31.00
2019-05-01T04:57:26.217Z,34.83
2019-05-01T05:00:03.577Z,25.70
2019-05-01T05:02:44.966Z,24.27
2019-05-01T05:05:16.616Z,23.90
2019-05-01T05:08:04.516Z,26.20
2019-05-01T05:10:33.837Z,29.07
2019-05-01T05:13:05.560Z,29.80
2019-05-01T05:15:52.102Z,29.43
2019-05-01T05:18:31.696Z,31.50
2019-05-01T05:21:02.244Z,32.30
2019-05-01T05:23:31.179Z,30.63
2019-05-01T05:26:00.524Z,29.43
2019-05-01T05:28:33.543Z,25.90
2019-05-01T05:31:03.669Z,30.23
2019-05-01T05:33:35.358Z,31.80
2019-05-01T05:36:05.907Z,29.23
2019-05-01T05:38:36.886Z,31.93
2019-05-01T05:41:07.193Z,33.33
2019-05-01T05:43:36.594Z,35.27
2019-05-01T05:46:12.587Z,32.67
2019-05-01T05:48:38.906Z,36.03
2019-05-01T05:51:14.975Z,40.70
2019-05-01T05:54:05.233Z,39.10
2019-05-01T05:56:40.787Z,42.43
2019-05-01T05:59:13.693Z,44.63
2019-05-01T06:02:03.395Z,46.47
2019-05-01T06:04:36.596Z,48.90
2019-05-01T06:07:08.373Z,47.13
2019-05-01T06:09:44.717Z,44.10
2019-05-01T06:12:20.145Z,49.67
2019-05-01T06:15:02.329Z,42.73
2019-05-01T06:17:30.971Z,38.40
2019-05-01T06:20:10.084Z,44.27
2019-05-01T06:22:57.283Z,41.43
2019-05-01T06:25:30.547Z,44.23
2019-05-01T06:27:59.482Z,43.93
2019-05-01T06:30:28.401Z,37.07
2019-05-01T06:32:57.075Z,42.97
2019-05-01T06:35:25.825Z,38.60
2019-05-01T06:38:03.417Z,38.93
2019-05-01T06:40:40.753Z,37.30
2019-05-01T06:43:13.938Z,37.63
2019-05-01T06:45:51.642Z,37.67
2019-05-01T06:48:19.452Z,31.77
2019-05-01T06:50:53.046Z,32.63
2019-05-01T06:53:22.580Z,35.83
2019-05-01T06:55:53.722Z,38.37
2019-05-01T06:58:22.973Z,38.60
2019-05-01T07:00:52.352Z,34.83
2019-05-01T07:03:21.694Z,38.13
2019-05-01T07:05:54.311Z,44.40
2019-05-01T07:08:24.782Z,38.23
2019-05-01T07:10:58.555Z,39.97
2019-05-01T07:13:27.217Z,38.40
2019-05-01T07:15:58.705Z,40.30
2019-05-01T07:18:29.014Z,36.63
2019-05-01T07:20:56.320Z,35.27
2019-05-01T07:23:25.180Z,37.57
2019-05-01T07:25:54.259Z,38.00
2019-05-01T07:28:23.790Z,40.67
2019-05-01T07:30:54.747Z,34.30
2019-05-01T07:33:24.570Z,40.03
2019-05-01T07:35:54.024Z,37.20
2019-05-01T07:38:23.245Z,34.23
2019-05-01T07:40:51.898Z,43.60
2019-05-01T07:43:24.045Z,31.77
2019-05-01T07:46:02.375Z,33.53
2019-05-01T07:48:36.125Z,30.97
2019-05-01T07:51:06.975Z,31.80
2019-05-01T07:53:36.763Z,28.85
2019-05-01T07:56:06.676Z,30.95
2019-05-01T07:58:35.789Z,35.20
2019-05-01T08:01:18.471Z,30.82
2019-05-01T08:03:45.897Z,25.40
2019-05-01T08:06:16.217Z,33.08
2019-05-01T08:08:44.701Z,27.73
2019-05-01T08:11:13.187Z,33.28
2019-05-01T08:13:41.914Z,27.00
2019-05-01T08:16:10.600Z,31.00
2019-05-01T08:18:46.374Z,25.30
2019-05-01T08:21:26.207Z,30.32
2019-05-01T08:23:52.237Z,27.55
2019-05-01T08:26:20.871Z,30.95
2019-05-01T08:29:02.918Z,29.50
2019-05-01T08:31:49.532Z,28.62
2019-05-01T08:34:48.459Z,33.33
2019-05-01T08:37:08.064Z,31.25
2019-05-01T08:39:39.611Z,31.05
2019-05-01T08:42:07.183Z,29.53
2019-05-01T08:44:53.337Z,30.87
2019-05-01T08:47:38.188Z,30.30
2019-05-01T08:50:12.613Z,34.37
2019-05-01T08:52:46.944Z,31.20
2019-05-01T08:55:12.211Z,31.20
2019-05-01T08:57:40.798Z,35.67
2019-05-01T09:00:10.403Z,29.20
2019-05-01T09:02:48.168Z,34.87
2019-05-01T09:05:28.385Z,36.90
2019-05-01T09:07:51.146Z,37.93
2019-05-01T09:10:25.460Z,36.30
2019-05-01T09:12:56.815Z,32.50
2019-05-01T09:15:25.410Z,33.37
2019-05-01T09:17:55.572Z,33.20
2019-05-01T09:20:24.052Z,35.13
2019-05-01T09:22:57.500Z,40.17
2019-05-01T09:25:30.855Z,33.40
2019-05-01T09:28:05.680Z,34.97
2019-05-01T09:30:38.262Z,27.63
2019-05-01T09:33:07.092Z,35.63
2019-05-01T09:35:40.352Z,34.03
2019-05-01T09:38:11.681Z,34.15
2019-05-01T09:40:40.169Z,34.18
2019-05-01T09:43:08.907Z,34.70
2019-05-01T09:45:37.468Z,35.45
2019-05-01T09:48:06.514Z,32.95
2019-05-01T09:50:36.698Z,37.00
2019-05-01T09:53:15.988Z,31.57
2019-05-01T09:55:51.963Z,34.70
2019-05-01T09:58:20.468Z,34.03
2019-05-01T10:00:52.617Z,34.83
2019-05-01T10:03:20.420Z,31.93
2019-05-01T10:05:48.891Z,32.00
2019-05-01T10:08:17.567Z,35.60
2019-05-01T10:10:46.043Z,37.65
2019-05-01T10:13:17.678Z,32.05
2019-05-01T10:15:45.103Z,38.23
2019-05-01T10:18:13.668Z,36.80
2019-05-01T10:20:42.147Z,40.73
2019-05-01T10:23:13.030Z,33.28
2019-05-01T10:25:42.814Z,39.80
2019-05-01T10:28:30.770Z,38.38
2019-05-01T10:31:07.033Z,36.10
2019-05-01T10:33:35.180Z,33.95
2019-05-01T10:36:18.177Z,44.55
2019-05-01T10:38:39.992Z,38.42
2019-05-01T10:41:10.518Z,39.15
2019-05-01T10:43:39.316Z,39.00
2019-05-01T10:46:08.082Z,40.78
2019-05-01T10:48:36.585Z,37.58
2019-05-01T10:51:05.125Z,37.78
2019-05-01T10:53:33.671Z,39.05
2019-05-01T10:56:02.179Z,37.70
2019-05-01T10:58:30.713Z,40.50
2019-05-01T11:01:09.937Z,43.10
2019-05-01T11:03:38.424Z,42.30
2019-05-01T11:06:06.978Z,42.35
2019-05-01T11:08:35.548Z,37.25
2019-05-01T11:11:05.682Z,38.20
2019-05-01T11:13:34.228Z,37.30
2019-05-01T11:16:02.689Z,40.23
2019-05-01T11:18:31.187Z,38.40
2019-05-01T11:20:59.742Z,37.85
2019-05-01T11:23:28.256Z,38.55
2019-05-01T11:25:56.730Z,36.10
2019-05-01T11:28:25.204Z,36.15
2019-05-01T11:30:53.697Z,37.70
2019-05-01T11:33:32.944Z,36.33
2019-05-01T11:36:19.078Z,37.13
2019-05-01T11:38:49.187Z,35.78
2019-05-01T11:41:25.030Z,40.87
2019-05-01T11:43:53.532Z,37.60
2019-05-01T11:46:22.074Z,41.92
2019-05-01T11:48:50.544Z,40.60
2019-05-01T11:51:19.132Z,39.40
2019-05-01T11:53:47.841Z,36.93
2019-05-01T11:56:16.472Z,44.58
2019-05-01T11:58:44.973Z,39.55
2019-05-01T12:01:16.152Z,39.55
2019-05-01T12:03:44.657Z,40.15
2019-05-01T12:06:22.752Z,39.20
2019-05-01T12:08:43.421Z,45.60
2019-05-01T12:11:13.121Z,43.42
2019-05-01T12:13:43.859Z,43.70
2019-05-01T12:16:13.466Z,41.68
2019-05-01T12:18:41.939Z,43.25
2019-05-01T12:21:10.546Z,46.18
2019-05-01T12:23:39.041Z,41.37
2019-05-01T12:26:07.522Z,45.05
2019-05-01T12:28:36.000Z,54.60
2019-05-01T12:31:04.742Z,50.45
2019-05-01T12:33:33.224Z,44.35
2019-05-01T12:36:03.522Z,49.48
2019-05-01T12:38:31.988Z,51.02
2019-05-01T12:41:16.943Z,46.80
2019-05-01T12:43:45.414Z,44.27
2019-05-01T12:46:15.530Z,48.95
2019-05-01T12:48:44.032Z,49.38
2019-05-01T12:51:12.536Z,50.23
2019-05-01T12:53:42.719Z,52.20
2019-05-01T12:56:21.877Z,46.65
2019-05-01T12:58:51.033Z,51.55
2019-05-01T13:01:19.714Z,54.20
2019-05-01T13:03:48.202Z,50.15
2019-05-01T13:06:16.760Z,53.92
2019-05-01T13:08:45.258Z,55.17
2019-05-01T13:11:13.751Z,54.25
2019-05-01T13:13:42.259Z,55.33
2019-05-01T13:16:10.801Z,58.65
2019-05-01T13:18:39.278Z,57.65
2019-05-01T13:21:08.048Z,59.48
2019-05-01T13:23:36.611Z,54.77
2019-05-01T13:26:06.728Z,64.85
2019-05-01T13:28:36.851Z,59.23
2019-05-01T13:31:07.033Z,59.23
2019-05-01T13:33:35.514Z,61.40
2019-05-01T13:36:05.042Z,59.95
2019-05-01T13:38:33.514Z,60.85
2019-05-01T13:41:01.986Z,59.18
2019-05-01T13:43:30.491Z,62.90
2019-05-01T13:45:58.959Z,64.40
2019-05-01T13:48:27.509Z,62.60
2019-05-01T13:50:56.010Z,59.77
2019-05-01T13:53:24.481Z,70.97
2019-05-01T13:55:52.965Z,65.72
2019-05-01T13:58:27.551Z,66.93
2019-05-01T14:00:56.120Z,63.80
2019-05-01T14:03:24.593Z,69.75
2019-05-01T14:05:53.080Z,71.57
2019-05-01T14:08:27.622Z,64.10
2019-05-01T14:10:56.110Z,63.38
2019-05-01T14:13:24.615Z,75.28
2019-05-01T14:15:53.099Z,67.97
2019-05-01T14:18:25.066Z,67.53
2019-05-01T14:21:16.939Z,71.02
2019-05-01T14:24:03.064Z,69.65
2019-05-01T14:26:32.598Z,70.97
2019-05-01T14:29:01.153Z,72.62
2019-05-01T14:31:30.173Z,67.75
2019-05-01T14:33:58.679Z,66.97
2019-05-01T14:36:27.172Z,70.72
2019-05-01T14:38:55.657Z,70.25
2019-05-01T14:41:24.174Z,69.35
2019-05-01T14:43:52.753Z,69.97
2019-05-01T14:46:21.299Z,68.57
2019-05-01T14:48:49.766Z,72.47
2019-05-01T14:51:21.797Z,73.37
2019-05-01T14:53:50.471Z,69.03
2019-05-01T14:56:18.950Z,70.70
2019-05-01T14:58:47.450Z,67.55
2019-05-01T15:01:15.982Z,69.65
2019-05-01T15:03:44.457Z,68.42
2019-05-01T15:06:13.097Z,73.10
2019-05-01T15:08:41.582Z,66.00
2019-05-01T15:11:10.077Z,66.92
2019-05-01T15:13:45.965Z,70.72
2019-05-01T15:16:25.006Z,72.62
2019-05-01T15:19:04.594Z,76.10
2019-05-01T15:21:33.154Z,73.30
2019-05-01T15:24:02.041Z,76.42
2019-05-01T15:26:30.547Z,73.40
2019-05-01T15:28:59.063Z,73.22
2019-05-01T15:31:27.552Z,70.97
2019-05-01T15:33:56.016Z,67.75
2019-05-01T15:36:24.493Z,71.50
2019-05-01T15:38:52.995Z,71.10
2019-05-01T15:41:39.390Z,71.10
2019-05-01T15:44:18.341Z,70.35
2019-05-01T15:46:47.323Z,70.32
2019-05-01T15:49:15.803Z,65.87
2019-05-01T15:51:44.521Z,65.03
2019-05-01T15:54:13.202Z,62.55
2019-05-01T15:56:41.701Z,62.35
2019-05-01T15:59:10.190Z,58.00
2019-05-01T16:01:38.734Z,52.83
2019-05-01T16:04:07.382Z,55.92
2019-05-01T16:06:35.846Z,48.35
2019-05-01T16:09:06.670Z,51.65
2019-05-01T16:11:37.506Z,48.90
2019-05-01T16:14:05.982Z,51.05
2019-05-01T16:16:34.522Z,47.73
2019-05-01T16:19:03.023Z,53.00
2019-05-01T16:21:31.570Z,41.98
2019-05-01T16:24:00.042Z,42.78
2019-05-01T16:26:28.606Z,40.65
2019-05-01T16:28:57.077Z,37.13
2019-05-01T16:31:25.552Z,32.83
2019-05-01T16:33:54.124Z,38.75
2019-05-01T16:36:22.878Z,35.03
2019-05-01T16:38:56.003Z,32.78
2019-05-01T16:41:26.342Z,31.75
2019-05-01T16:43:54.825Z,33.10
2019-05-01T16:46:23.317Z,31.60
2019-05-01T16:48:51.817Z,30.50
2019-05-01T16:51:23.473Z,34.78
2019-05-01T16:53:56.441Z,32.90
2019-05-01T16:56:25.004Z,31.33
2019-05-01T16:58:53.764Z,35.50
2019-05-01T17:01:26.943Z,29.40
2019-05-01T17:04:07.791Z,32.08
2019-05-01T17:06:45.135Z,37.83
2019-05-01T17:09:14.956Z,38.95
2019-05-01T17:11:43.445Z,40.50
2019-05-01T17:14:11.942Z,39.47
2019-05-01T17:16:40.900Z,31.75
2019-05-01T17:19:09.871Z,29.63
2019-05-01T17:21:38.363Z,27.02
2019-05-01T17:24:06.990Z,25.52
2019-05-01T17:26:35.471Z,27.93
2019-05-01T17:29:04.962Z,29.00
2019-05-01T17:31:33.898Z,28.32
2019-05-01T17:34:02.446Z,24.87
2019-05-01T17:36:30.994Z,27.22
2019-05-01T17:38:59.503Z,22.70
2019-05-01T17:41:28.694Z,27.27
2019-05-01T17:43:57.606Z,23.55
2019-05-01T17:46:27.062Z,25.60
2019-05-01T17:49:04.116Z,25.65
2019-05-01T17:51:31.676Z,27.60
2019-05-01T17:54:00.159Z,26.00
2019-05-01T17:56:28.836Z,25.90
2019-05-01T17:58:57.689Z,31.60
2019-05-01T18:01:34.177Z,25.40
2019-05-01T18:04:02.095Z,26.53
2019-05-01T18:06:35.553Z,26.00
2019-05-01T18:09:12.941Z,29.47
2019-05-01T18:11:38.547Z,26.20
2019-05-01T18:14:07.182Z,26.33
2019-05-01T18:16:38.158Z,25.83
2019-05-01T18:19:09.941Z,25.73
2019-05-01T18:21:40.883Z,27.77
2019-05-01T18:24:18.876Z,26.87
2019-05-01T18:27:05.249Z,26.80
2019-05-01T18:29:50.129Z,24.10
2019-05-01T18:32:23.187Z,27.77
2019-05-01T18:34:51.747Z,29.23
2019-05-01T18:37:24.556Z,24.53
2019-05-01T18:39:53.837Z,28.60
2019-05-01T18:42:22.351Z,27.63
2019-05-01T18:44:51.343Z,23.70
2019-05-01T18:47:20.558Z,26.17
2019-05-01T18:49:49.047Z,23.77
2019-05-01T18:52:18.213Z,27.63
2019-05-01T18:54:46.922Z,24.60
2019-05-01T18:57:15.419Z,26.90
2019-05-01T18:59:43.962Z,25.23
2019-05-01T19:02:12.723Z,24.47
2019-05-01T19:04:41.206Z,24.50
2019-05-01T19:07:10.024Z,26.57
2019-05-01T19:09:38.956Z,28.90
2019-05-01T19:12:09.604Z,24.67
2019-05-01T19:14:38.527Z,26.37
2019-05-01T19:17:07.064Z,25.17
2019-05-01T19:19:35.623Z,26.97
2019-05-01T19:22:06.489Z,24.67
2019-05-01T19:24:38.196Z,27.10
2019-05-01T19:27:05.996Z,26.27
2019-05-01T19:29:34.589Z,25.87
2019-05-01T19:32:03.243Z,30.83
2019-05-01T19:34:31.777Z,27.03
2019-05-01T19:37:00.983Z,29.53
2019-05-01T19:39:42.425Z,28.97
2019-05-01T19:41:59.982Z,28.07
2019-05-01T19:44:38.482Z,26.90
2019-05-01T19:47:07.641Z,27.77
2019-05-01T19:49:35.498Z,30.57
2019-05-01T19:52:04.477Z,31.70
2019-05-01T19:54:33.016Z,29.67
2019-05-01T19:57:01.538Z,28.73
2019-05-01T19:59:30.206Z,31.33
2019-05-01T20:01:58.714Z,28.67
2019-05-01T20:04:27.230Z,29.57
2019-05-01T20:06:55.739Z,27.37
2019-05-01T20:09:24.653Z,28.40
2019-05-01T20:11:53.198Z,31.90
2019-05-01T20:14:21.756Z,29.87
2019-05-01T20:16:51.030Z,28.77
2019-05-01T20:19:19.785Z,28.40
2019-05-01T20:21:48.290Z,34.57
2019-05-01T20:24:19.198Z,32.57
2019-05-01T20:26:47.117Z,28.13
2019-05-01T20:29:17.659Z,29.10
2019-05-01T20:31:50.396Z,29.60
2019-05-01T20:34:17.346Z,27.35
2019-05-01T20:36:46.278Z,28.13
2019-05-01T20:39:14.786Z,30.10
2019-05-01T20:41:43.273Z,29.97
2019-05-01T20:44:13.908Z,27.67
2019-05-01T20:46:41.994Z,28.87
2019-05-01T20:49:10.485Z,28.63
2019-05-01T20:51:39.038Z,28.67
2019-05-01T20:54:07.584Z,28.53
2019-05-01T20:56:40.846Z,26.23
2019-05-01T20:59:09.323Z,28.10
2019-05-01T21:01:38.133Z,31.40
2019-05-01T21:04:23.129Z,28.37
2019-05-01T21:06:59.201Z,28.47
2019-05-01T21:09:31.830Z,28.33
2019-05-01T21:12:05.450Z,32.70
2019-05-01T21:14:30.514Z,30.60
2019-05-01T21:16:58.991Z,29.20
2019-05-01T21:19:28.573Z,27.53
2019-05-01T21:21:57.773Z,29.03
2019-05-01T21:24:26.256Z,26.17
2019-05-01T21:26:54.815Z,30.82
2019-05-01T21:29:24.050Z,28.77
2019-05-01T21:31:54.273Z,30.13
2019-05-01T21:34:24.403Z,30.73
2019-05-01T21:36:54.020Z,28.27
2019-05-01T21:39:25.026Z,31.13
2019-05-01T21:41:53.371Z,32.67
2019-05-01T21:44:23.416Z,30.67
2019-05-01T21:46:53.492Z,30.23
2019-05-01T21:49:22.957Z,29.30
2019-05-01T21:51:52.970Z,29.73
2019-05-01T21:54:21.979Z,32.50
2019-05-01T21:56:51.070Z,29.70
2019-05-01T21:59:19.617Z,30.93
2019-05-01T22:01:48.086Z,32.63
2019-05-01T22:04:16.894Z,33.03
2019-05-01T22:06:46.669Z,33.60
2019-05-01T22:09:17.307Z,32.03
2019-05-01T22:11:49.365Z,37.17
2019-05-01T22:14:19.935Z,32.47
2019-05-01T22:16:53.132Z,33.50
2019-05-01T22:19:20.710Z,34.03
2019-05-01T22:21:50.922Z,34.20
2019-05-01T22:24:21.101Z,33.60
2019-05-01T22:26:56.981Z,34.07
2019-05-01T22:29:32.288Z,35.77
2019-05-01T22:31:59.295Z,36.07
2019-05-01T22:34:31.891Z,39.07
2019-05-01T22:37:00.373Z,33.23
2019-05-01T22:39:30.487Z,34.90
2019-05-01T22:41:58.981Z,38.17
2019-05-01T22:44:27.507Z,37.67
2019-05-01T22:46:56.345Z,33.27
2019-05-01T22:49:24.825Z,38.40
2019-05-01T22:51:53.297Z,34.60
2019-05-01T22:54:21.857Z,35.93
2019-05-01T22:56:50.449Z,31.97
2019-05-01T22:59:18.922Z,38.27
2019-05-01T23:01:52.678Z,33.70
2019-05-01T23:04:19.447Z,35.17
2019-05-01T23:06:47.934Z,35.60
2019-05-01T23:09:18.947Z,37.70
2019-05-01T23:11:48.191Z,35.47
2019-05-01T23:14:18.077Z,41.47
2019-05-01T23:16:50.989Z,37.30
2019-05-01T23:19:22.754Z,34.90
2019-05-01T23:21:50.841Z,40.07
2019-05-01T23:24:19.924Z,33.40
2019-05-01T23:26:51.810Z,34.47
2019-05-01T23:29:18.688Z,39.20
2019-05-01T23:31:47.354Z,38.13
2019-05-01T23:34:15.833Z,33.95
2019-05-01T23:36:44.325Z,36.27
2019-05-01T23:39:14.421Z,32.33
2019-05-01T23:41:47.173Z,36.50
2019-05-01T23:44:13.100Z,35.47
2019-05-01T23:46:41.565Z,37.30
2019-05-01T23:49:10.058Z,37.20
2019-05-01T23:51:38.541Z,37.73
2019-05-01T23:54:07.072Z,37.67
2019-05-01T23:56:36.392Z,37.93
2019-05-01T23:59:05.656Z,41.20
